Flight Track Log - Related Links

Times and Time Zones

All times are in EDT time to prevent confusion due to time zone crossing. See the N3746H flight status page for this flight to view local times or setup timezone preferences in your user account.

Time Position Orientation Groundspeed Altitude Reporting Facility
EDT Latitude Longitude Course Direction KTS MPH feet Rate Location/Type
Tue 08:39:54 AM 29.9719 -90.2564 278° West 175 201 900  Level Houston Center
Tue 08:40:42 AM 29.9369 -90.2769 207° Southwest 201 231 2,300 1,881 Climbing Houston Center
Tue 08:41:01 AM 29.9319 -90.3050 258° West 265 305 3,000 2,889 Climbing Houston Center
Tue 08:42:00 AM 29.8471 -90.6059 240° Southwest  Level FlightAware Approximate
Tue 08:42:03 AM 29.9247 -90.3925 265° West 274 315 6,200  Level Houston Center
Tue 08:43:00 AM 29.8339 -90.7227 277° West  Level FlightAware Approximate
Tue 08:43:05 AM 29.9175 -90.4825 265° West 277 319 9,300  Level Houston Center
Tue 08:44:00 AM 29.8470 -90.8531 277° West  Level FlightAware Approximate
Tue 08:44:06 AM 29.9058 -90.5756 262° West 295 339 11,200  Level Houston Center
Tue 08:45:00 AM 29.8625 -90.9833 278° West  Level FlightAware Approximate
Tue 08:45:08 AM 29.8944 -90.6889 263° West 351 404 13,800  Level Houston Center
Tue 08:46:10 AM 29.8819 -90.8039 263° West 362 417 16,500 2,244 Climbing Houston Center
Tue 08:47:11 AM 29.8778 -90.9239 268° West 380 437 18,400 2,000 Climbing Houston Center
Tue 08:48:13 AM 29.8853 -91.0511 274° West 398 458 20,600 2,177 Climbing Houston Center
Tue 08:49:15 AM 29.8906 -91.2075 272° West 407 468 22,900 2,000 Climbing Houston Center
Tue 08:50:16 AM 29.8964 -91.3411 273° West 419 482 24,700 1,463 Climbing Houston Center
Tue 08:51:18 AM 29.9167 -91.4764 280° West 428 493 25,900 1,210 Climbing Houston Center
Tue 08:52:20 AM 29.9381 -91.6156 280° West 440 506 27,200 1,415 Climbing Houston Center
Tue 08:53:21 AM 29.9550 -91.7503 278° West 442 509 28,800 1,366 Climbing Houston Center
Tue 08:54:23 AM 29.9731 -91.8861 279° West 433 498 30,000 774 Climbing Houston Center
Tue 08:55:25 AM 29.9953 -92.0456 279° West 423 487 30,400 1,171 Climbing Houston Center
Tue 08:56:26 AM 30.0208 -92.1733 283° West 414 476 32,400 1,317 Climbing Houston Center
Tue 08:57:28 AM 30.0458 -92.2986 283° West 404 465 33,100 629 Climbing Houston Center
Tue 08:58:30 AM 30.0714 -92.4267 283° West 408 470 33,700 732 Climbing Houston Center
Tue 08:59:31 AM 30.0961 -92.5597 282° West 419 482 34,600 878 Climbing Houston Center
Tue 09:00:33 AM 30.1208 -92.6906 282° West 418 481 35,500 677 Climbing Houston Center
Tue 09:01:35 AM 30.1469 -92.8197 283° West 415 478 36,000 244 Climbing Houston Center
Tue 09:02:36 AM 30.1767 -92.9775 282° West 419 482 36,000  Level Houston Center
Tue 09:03:38 AM 30.2003 -93.1069 282° West 414 476 36,000  Level Houston Center
Tue 09:04:40 AM 30.2242 -93.2356 282° West 409 471 36,000  Level Houston Center
Tue 09:05:41 AM 30.2481 -93.3647 282° West 409 471 36,000  Level Houston Center
Tue 09:06:43 AM 30.2700 -93.4850 282° West 412 474 36,000  Level Houston Center
Tue 09:07:45 AM 30.2986 -93.6383 282° West 410 472 36,000  Level Houston Center
Tue 09:08:46 AM 30.3231 -93.7636 283° West 420 483 36,000  Level Houston Center
Tue 09:09:48 AM 30.3464 -93.8953 282° West 416 479 36,000  Level Houston Center
Tue 09:10:50 AM 30.3700 -94.0264 282° West 418 481 36,000  Level Houston Center
Tue 09:11:51 AM 30.3939 -94.1567 282° West 419 482 36,000  Level Houston Center
Tue 09:12:53 AM 30.4167 -94.2903 281° West 423 487 36,000  Level Houston Center
Tue 09:13:55 AM 30.4453 -94.4511 282° West 426 490 36,000  Level Houston Center
Tue 09:14:56 AM 30.4689 -94.5939 281° West 425 489 36,000  Level Houston Center
Tue 09:15:59 AM 30.4928 -94.7297 282° West 428 493 36,000  Level Houston Center
Tue 09:17:00 AM 30.5172 -94.8678 282° West 433 498 36,000  Level Houston Center
Tue 09:18:01 AM 30.5403 -95.0044 281° West 431 496 36,000  Level Houston Center
Tue 09:19:03 AM 30.5647 -95.1414 282° West 432 497 36,000  Level Houston Center
Tue 09:20:05 AM 30.5869 -95.2775 281° West 429 494 36,000  Level Houston Center
Tue 09:21:07 AM 30.6108 -95.4153 281° West 431 496 36,000  Level Houston Center
Tue 09:22:08 AM 30.6347 -95.5475 282° West 426 490 36,000  Level Houston Center
Tue 09:23:10 AM 30.6569 -95.6817 281° West 425 489 36,000  Level Houston Center
Tue 09:24:12 AM 30.6822 -95.8456 280° West 421 484 36,000  Level Houston Center
Tue 09:25:14 AM 30.7047 -95.9808 281° West 425 489 36,000  Level Houston Center
Tue 09:26:16 AM 30.7239 -96.1003 281° West 422 486 36,000  Level Houston Center
Tue 09:27:17 AM 30.7461 -96.2353 281° West 421 484 36,000  Level Houston Center
Tue 09:28:19 AM 30.7719 -96.3933 281° West 422 486 36,000  Level Houston Center
Tue 09:29:21 AM 30.7917 -96.5292 280° West 422 486 36,000  Level Houston Center
Tue 09:30:23 AM 30.8153 -96.6658 281° West 425 489 36,000  Level Houston Center
Tue 09:31:24 AM 30.8372 -96.8022 281° West 426 490 36,000  Level Houston Center
Tue 09:32:26 AM 30.8575 -96.9397 280° West 427 491 36,000  Level Houston Center
Tue 09:33:28 AM 30.8789 -97.0778 280° West 428 493 36,000  Level Houston Center
Tue 09:34:30 AM 30.9006 -97.2222 280° West 428 493 36,000  Level Houston Center
Tue 09:35:32 AM 30.9211 -97.3564 280° West 425 489 36,000  Level Houston Center
Tue 09:36:33 AM 30.9422 -97.4992 280° West 425 489 36,000  Level Houston Center
Tue 09:37:35 AM 30.9628 -97.6375 280° West 427 491 36,000  Level Houston Center
Tue 09:38:37 AM 30.9831 -97.7764 280° West 430 495 36,000  Level Houston Center
Tue 09:39:38 AM 31.0039 -97.9156 280° West 431 496 36,000  Level Houston Center
Tue 09:40:40 AM 31.0250 -98.0547 280° West 434 499 36,000  Level Houston Center
Tue 09:41:42 AM 31.0481 -98.2178 279° West 432 497 36,000  Level Houston Center
Tue 09:42:44 AM 31.0692 -98.3578 280° West 435 501 36,000  Level Houston Center
Tue 09:43:45 AM 31.0897 -98.4983 280° West 435 501 36,000  Level Houston Center
Tue 09:44:47 AM 31.1097 -98.6397 279° West 437 503 36,000  Level Houston Center
Tue 09:45:49 AM 31.1300 -98.7806 280° West 440 506 36,000  Level Houston Center
Tue 09:46:51 AM 31.1497 -98.9219 279° West 437 503 36,000  Level Houston Center
Tue 09:47:52 AM 31.1683 -99.0631 279° West 436 502 36,000  Level Houston Center
Tue 09:48:54 AM 31.1900 -99.2114 280° West 431 496 36,000  Level Houston Center
Tue 09:49:56 AM 31.2078 -99.3478 279° West 427 491 36,000  Level Houston Center
Tue 09:50:58 AM 31.2267 -99.4836 279° West 426 490 36,000  Level Houston Center
Tue 09:52:00 AM 31.2431 -99.6175 278° West 423 487 36,000  Level Houston Center
Tue 09:53:02 AM 31.2619 -99.7525 279° West 426 490 36,000  Level Houston Center
Tue 09:54:04 AM 31.2831 -99.9161 279° West 426 490 36,000  Level Houston Center
Tue 09:55:06 AM 31.3000 -100.0517 278° West 425 489 36,000  Level Houston Center
Tue 09:56:08 AM 31.3183 -100.1872 279° West 426 490 36,000  Level Houston Center
Tue 09:57:09 AM 31.3361 -100.3197 279° West 416 479 36,000  Level Houston Center
Tue 09:57:30 AM 31.3431 -100.3881 277° West 425 489 36,000  Level Fort Worth Center
Tue 09:58:30 AM 31.3608 -100.5150 279° West 430 495 36,000  Level Fort Worth Center
Tue 09:59:30 AM 31.3764 -100.6444 278° West 425 489 36,000  Level Fort Worth Center
Tue 10:00:30 AM 31.3878 -100.7617 277° West 419 482 36,000  Level Fort Worth Center
Tue 10:01:30 AM 31.4086 -100.9206 279° West 414 476 36,000  Level Fort Worth Center
Tue 10:02:30 AM 31.4278 -101.0578 279° West 414 476 36,000  Level Fort Worth Center
Tue 10:03:30 AM 31.4447 -101.1922 278° West 414 476 36,000  Level Fort Worth Center
Tue 10:04:30 AM 31.4614 -101.3269 278° West 419 482 36,000  Level Fort Worth Center
Tue 10:05:30 AM 31.4758 -101.4614 277° West 419 482 36,000  Level Fort Worth Center
Tue 10:06:30 AM 31.4922 -101.5961 278° West 419 482 36,000  Level Fort Worth Center
Tue 10:07:30 AM 31.5106 -101.7333 279° West 424 488 36,000  Level Fort Worth Center
Tue 10:08:30 AM 31.5247 -101.8681 277° West 424 488 36,000  Level Fort Worth Center
Tue 10:08:54 AM 31.5303 -101.9194 277° West 422 486 36,000  Level Albuquerque Center
Tue 10:09:55 AM 31.5450 -102.0539 277° West 421 484 36,000  Level Albuquerque Center
Tue 10:10:57 AM 31.5603 -102.1889 278° West 422 486 36,000  Level Albuquerque Center
Tue 10:11:58 AM 31.5744 -102.3236 277° West 422 486 36,000  Level Albuquerque Center
Tue 10:13:00 AM 31.5889 -102.4581 277° West 421 484 36,000  Level Albuquerque Center
Tue 10:14:02 AM 31.6058 -102.6197 277° West 421 484 36,000  Level Albuquerque Center
Tue 10:15:03 AM 31.6208 -102.7558 277° West 423 487 36,000  Level Albuquerque Center
Tue 10:16:05 AM 31.6344 -102.8897 277° West 417 480 36,000  Level Albuquerque Center
Tue 10:17:06 AM 31.6494 -103.0239 278° West 418 481 36,000  Level Albuquerque Center
Tue 10:18:08 AM 31.6636 -103.1594 277° West 418 481 36,000  Level Albuquerque Center
Tue 10:19:10 AM 31.6775 -103.2944 277° West 418 481 36,000  Level Albuquerque Center
Tue 10:20:11 AM 31.6925 -103.4444 277° West 419 482 36,000  Level Albuquerque Center
Tue 10:21:13 AM 31.7061 -103.5806 277° West 420 483 36,000  Level Albuquerque Center
Tue 10:22:15 AM 31.7203 -103.7169 277° West 420 483 36,000  Level Albuquerque Center
Tue 10:23:16 AM 31.7367 -103.8714 277° West 422 486 36,000  Level Albuquerque Center
Tue 10:24:18 AM 31.7489 -104.0064 276° West 419 482 36,000  Level Albuquerque Center
Tue 10:25:20 AM 31.7681 -104.1414 280° West 420 483 36,000  Level Albuquerque Center
Tue 10:26:21 AM 31.8011 -104.2722 287° West 420 483 36,000  Level Albuquerque Center
Tue 10:27:23 AM 31.8311 -104.4044 285° West 421 484 36,000  Level Albuquerque Center
Tue 10:28:25 AM 31.8614 -104.5361 285° West 421 484 36,000  Level Albuquerque Center
Tue 10:29:27 AM 31.8978 -104.6953 285° West 423 487 36,000  Level Albuquerque Center
Tue 10:30:29 AM 31.9275 -104.8253 285° West 414 476 36,000  Level Albuquerque Center
Tue 10:31:30 AM 31.9578 -104.9553 285° West 415 478 36,000  Level Albuquerque Center
Tue 10:32:32 AM 31.9872 -105.0878 285° West 418 481 36,000  Level Albuquerque Center
Tue 10:33:34 AM 32.0164 -105.2175 285° West 414 476 36,000  Level Albuquerque Center
Tue 10:34:36 AM 32.0453 -105.3517 284° West 420 483 36,000  Level Albuquerque Center
Tue 10:35:38 AM 32.0794 -105.5097 284° West 415 478 36,000  Level Albuquerque Center
Tue 10:36:40 AM 32.1083 -105.6414 285° West 417 480 36,000  Level Albuquerque Center
Tue 10:37:42 AM 32.1372 -105.7756 284° West 422 486 36,000  Level Albuquerque Center
Tue 10:38:44 AM 32.1669 -105.9083 285° West 421 484 36,000  Level Albuquerque Center
Tue 10:39:46 AM 32.1956 -106.0411 284° West 420 483 36,000  Level Albuquerque Center
Tue 10:40:48 AM 32.2244 -106.1756 284° West 423 487 36,000  Level Albuquerque Center
Tue 10:41:49 AM 32.2578 -106.3294 284° West 426 490 36,000  Level Albuquerque Center
Tue 10:42:51 AM 32.2861 -106.4656 284° West 428 493 36,000  Level Albuquerque Center
Tue 10:43:53 AM 32.3147 -106.6033 284° West 431 496 36,000  Level Albuquerque Center
Tue 10:44:55 AM 32.3447 -106.7411 284° West 433 498 36,000  Level Albuquerque Center
Tue 10:45:57 AM 32.3789 -106.9014 284° West 433 498 36,000  Level Albuquerque Center
Tue 10:46:59 AM 32.4103 -107.0511 284° West 436 502 36,000  Level Albuquerque Center
Tue 10:48:02 AM 32.4397 -107.1919 284° West 435 501 36,000  Level Albuquerque Center
Tue 10:49:04 AM 32.4669 -107.3406 282° West 438 504 36,000  Level Albuquerque Center
Tue 10:50:06 AM 32.4950 -107.4783 284° West 436 502 36,000  Level Albuquerque Center
Tue 10:51:08 AM 32.5219 -107.6158 283° West 435 501 36,000  Level Albuquerque Center
Tue 10:52:10 AM 32.5492 -107.7550 283° West 434 499 36,000  Level Albuquerque Center
Tue 10:53:12 AM 32.5767 -107.8936 283° West 436 502 36,000  Level Albuquerque Center
Tue 10:54:14 AM 32.6114 -108.0597 284° West 436 502 36,000  Level Albuquerque Center
Tue 10:55:16 AM 32.6472 -108.1944 288° West 434 499 36,000  Level Albuquerque Center
Tue 10:56:18 AM 32.6831 -108.3306 287° West 435 501 36,000  Level Albuquerque Center
Tue 10:57:20 AM 32.7175 -108.4681 287° West 437 503 36,000 48 Level Albuquerque Center
Tue 10:58:22 AM 32.7539 -108.6097 287° West 446 513 36,100  Climbing Albuquerque Center
Tue 10:59:24 AM 32.7881 -108.7536 286° West 452 520 36,000 -48 Descending Albuquerque Center
Tue 11:00:26 AM 32.8267 -108.9061 287° West 458 527 36,000  Level Albuquerque Center
Tue 11:01:28 AM 32.8714 -109.0786 287° West 456 525 36,000  Level Albuquerque Center
Tue 11:02:30 AM 32.9047 -109.2236 285° West 457 526 36,000  Level Albuquerque Center
Tue 11:03:32 AM 32.9406 -109.3686 286° West 457 526 36,000  Level Albuquerque Center
Tue 11:04:34 AM 32.9753 -109.5114 286° West 455 524 36,000  Level Albuquerque Center
Tue 11:05:36 AM 33.0097 -109.6536 286° West 452 520 36,000  Level Albuquerque Center
Tue 11:06:38 AM 33.0503 -109.8244 286° West 452 520 36,000  Level Albuquerque Center
Tue 11:07:40 AM 33.0844 -109.9692 286° West 455 524 36,000  Level Albuquerque Center
Tue 11:08:43 AM 33.1206 -110.1125 287° West 457 526 36,000  Level Albuquerque Center
Tue 11:09:45 AM 33.1544 -110.2553 286° West 453 521 36,000  Level Albuquerque Center
Tue 11:10:47 AM 33.1872 -110.3994 285° West 455 524 36,000  Level Albuquerque Center
Tue 11:11:49 AM 33.2275 -110.5733 286° West 455 524 36,000  Level Albuquerque Center
Tue 11:12:51 AM 33.2572 -110.7017 286° West 456 525 36,000  Level Albuquerque Center
Tue 11:13:53 AM 33.2994 -110.8767 286° West 457 526 36,000  Level Albuquerque Center
Tue 11:14:55 AM 33.3336 -111.0278 285° West 457 526 36,000  Level Albuquerque Center
Tue 11:15:57 AM 33.3653 -111.1706 285° West 457 526 36,000  Level Albuquerque Center
Tue 11:16:59 AM 33.3978 -111.3183 285° West 458 527 36,000  Level Albuquerque Center
Tue 11:18:01 AM 33.4308 -111.4647 285° West 455 524 36,000  Level Albuquerque Center
Tue 11:19:03 AM 33.4625 -111.6103 285° West 450 518 36,000  Level Albuquerque Center
Tue 11:20:05 AM 33.4956 -111.7561 285° West 451 519 36,000  Level Albuquerque Center
Tue 11:21:07 AM 33.5333 -111.9308 285° West 450 518 36,000  Level Albuquerque Center
Tue 11:22:10 AM 33.5656 -112.0756 285° West 448 516 36,000  Level Albuquerque Center
Tue 11:23:12 AM 33.5961 -112.2208 284° West 447 514 36,000  Level Albuquerque Center
Tue 11:24:14 AM 33.6278 -112.3653 285° West 446 513 36,000  Level Albuquerque Center
Tue 11:25:16 AM 33.6583 -112.5083 284° West 442 509 36,000  Level Albuquerque Center
Tue 11:26:18 AM 33.6886 -112.6522 284° West 443 510 36,000  Level Albuquerque Center
Tue 11:27:20 AM 33.7189 -112.7969 284° West 446 513 36,000  Level Albuquerque Center
Tue 11:28:22 AM 33.7550 -112.9697 284° West 445 512 36,000  Level Albuquerque Center
Tue 11:29:24 AM 33.7864 -113.1161 285° West 450 518 36,000  Level Albuquerque Center
Tue 11:30:26 AM 33.8156 -113.2614 284° West 450 518 36,000  Level Albuquerque Center
Tue 11:31:28 AM 33.8461 -113.4064 284° West 449 517 36,000  Level Albuquerque Center
Tue 11:32:30 AM 33.8764 -113.5522 284° West 450 518 36,000  Level Albuquerque Center
Tue 11:33:32 AM 33.9064 -113.6975 284° West 448 516 36,000  Level Albuquerque Center
Tue 11:34:34 AM 33.9317 -113.8739 280° West 446 513 36,000  Level Albuquerque Center
Tue 11:35:36 AM 33.9464 -114.0236 277° West 449 517 36,000  Level Albuquerque Center
Tue 11:36:38 AM 33.9617 -114.1711 277° West 446 513 36,000  Level Albuquerque Center
Tue 11:37:40 AM 33.9769 -114.3300 277° West 444 511 36,000 -406 Level Albuquerque Center
Tue 11:38:51 AM 33.9961 -114.5108 277° West 445 512 35,100 -812 Descending Los Angeles Center
Tue 11:39:53 AM 34.0103 -114.6586 277° West 446 513 34,200 -912 Descending Los Angeles Center
Tue 11:40:56 AM 34.0247 -114.8044 277° West 441 507 33,200 -919 Descending Los Angeles Center
Tue 11:41:57 AM 34.0386 -114.9503 277° West 441 507 32,300 -585 Descending Los Angeles Center
Tue 11:42:59 AM 34.0519 -115.0992 276° West 448 516 32,000 -144 Descending Los Angeles Center
Tue 11:44:02 AM 34.0667 -115.2483 277° West 451 519 32,000  Level Los Angeles Center
Tue 11:45:03 AM 34.0828 -115.4278 276° West 451 519 32,000  Level Los Angeles Center
Tue 11:46:06 AM 34.0958 -115.5778 276° West 452 520 32,000  Level Los Angeles Center
Tue 11:47:08 AM 34.1094 -115.7278 276° West 452 520 32,000  Level Los Angeles Center
Tue 11:48:10 AM 34.0972 -115.8775 264° West 456 525 32,000 -387 Level Los Angeles Center
Tue 11:49:12 AM 34.0750 -116.0250 260° West 452 520 31,200 -919 Descending Los Angeles Center
Tue 11:50:14 AM 34.0469 -116.2056 259° West 457 526 30,100 -1,065 Descending Los Angeles Center
Tue 11:51:16 AM 34.0247 -116.3572 260° West 461 531 29,000 -1,645 Descending Los Angeles Center
Tue 11:52:18 AM 34.0039 -116.5042 260° West 453 521 26,700 -2,208 Descending Los Angeles Center
Tue 11:53:21 AM 33.9931 -116.6483 265° West 440 506 24,400 -2,208 Descending Los Angeles Center
Tue 11:54:23 AM 33.9814 -116.7864 264° West 425 489 22,100 -2,419 Descending Los Angeles Center
Tue 11:55:25 AM 33.9689 -116.9456 265° West 406 467 19,400 -2,419 Descending Los Angeles Center
Tue 11:56:27 AM 33.9586 -117.0747 265° West 394 453 17,100 -1,258 Descending Los Angeles Center
Tue 11:57:29 AM 33.9475 -117.1956 264° West 355 409 16,800 -774 Descending Los Angeles Center
Tue 11:58:31 AM 33.9378 -117.3028 264° West 314 361 15,500 -1,306 Descending Los Angeles Center
Tue 11:59:33 AM 33.9400 -117.4003 272° West 293 337 14,100 -1,429 Descending Los Angeles Center
Tue 12:00:37 PM 33.9833 -117.5000 298° West 287 330 12,500 -1,370 Descending Southern California TRACON
Tue 12:02:37 PM 34.0000 -117.6833 276° West 276 318 9,900 -1,260 Descending Southern California TRACON
Tue 12:03:38 PM 34.0000 -117.7833 270° West 283 326 8,700 -1,041 Descending Southern California TRACON
Tue 12:04:38 PM 33.9833 -117.8833 259° West 277 319 7,800 -1,000 Descending Southern California TRACON
Tue 12:06:38 PM 33.9667 -118.0167 261° West 189 217 5,700 -925 Descending Southern California TRACON
Tue 12:09:04 PM 33.9597 -118.1628 267° West 178 205 3,700 -808 Descending Los Angeles Center
Tue 12:10:06 PM 33.9539 -118.2225 263° West 180 207 2,900 -774 Descending Los Angeles Center

Login

Don't have an account? Register now (free) for customized features, flight alerts, and more!